createdAt,value
2022-12-19T00:03:30.665Z,100455.66
2022-12-19T00:08:32.757Z,100439.94
2022-12-19T00:13:40.814Z,100427.91
2022-12-19T00:18:44.244Z,100427.94
2022-12-19T00:23:46.417Z,100426.81
2022-12-19T00:28:58.752Z,100436.97
2022-12-19T00:34:00.807Z,100439.53
2022-12-19T00:39:05.693Z,100445.88
2022-12-19T00:44:12.086Z,100440.84
2022-12-19T00:49:13.957Z,100433.41
2022-12-19T00:54:15.792Z,100438.56
2022-12-19T00:59:18.163Z,100436.97
2022-12-19T01:04:29.806Z,100436.94
2022-12-19T01:09:33.095Z,100426.75
2022-12-19T01:14:35.194Z,100422.91
2022-12-19T01:19:43.310Z,100420.56
2022-12-19T01:24:46.018Z,100425.34
2022-12-19T01:29:52.568Z,100434.53
2022-12-19T01:34:55.033Z,100434.38
2022-12-19T01:39:57.093Z,100424.69
2022-12-19T01:45:33.501Z,100422.53
2022-12-19T01:50:46.092Z,100412.69
2022-12-19T01:56:09.327Z,100416.94
2022-12-19T02:01:11.266Z,100408.31
2022-12-19T02:06:16.349Z,100406.94
2022-12-19T02:11:18.217Z,100393.84
2022-12-19T02:16:37.825Z,100390.84
2022-12-19T02:22:20.687Z,100392.13
2022-12-19T02:27:44.456Z,100391.41
2022-12-19T02:32:51.300Z,100364.06
2022-12-19T02:38:03.647Z,100374.03
2022-12-19T02:43:08.648Z,100368.41
2022-12-19T02:48:12.266Z,100352.59
2022-12-19T02:53:16.093Z,100347.84
2022-12-19T02:58:27.092Z,100350.41
2022-12-19T03:03:52.919Z,100354.03
2022-12-19T03:09:08.952Z,100344.41
2022-12-19T03:14:13.666Z,100332.09
2022-12-19T03:19:15.590Z,100338.91
2022-12-19T03:24:17.514Z,100342.88
2022-12-19T03:29:23.709Z,100345.78
2022-12-19T03:34:33.041Z,100336.72
2022-12-19T03:39:34.889Z,100332.81
2022-12-19T03:44:39.851Z,100318.34
2022-12-19T03:49:41.792Z,100310.03
2022-12-19T03:54:49.364Z,100288.25
2022-12-19T03:59:55.382Z,100292.53
2022-12-19T04:05:00.178Z,100294.44
2022-12-19T04:10:08.096Z,100295.78
2022-12-19T04:15:10.389Z,100291.03
2022-12-19T04:20:16.899Z,100278.09
2022-12-19T04:25:24.009Z,100287.50
2022-12-19T04:30:29.720Z,100291.53
2022-12-19T04:35:38.353Z,100307.94
2022-12-19T04:40:41.672Z,100315.47
2022-12-19T04:45:43.787Z,100315.47
2022-12-19T04:50:45.767Z,100292.63
2022-12-19T04:55:47.611Z,100305.25
2022-12-19T05:00:49.439Z,100304.38
2022-12-19T05:05:51.293Z,100292.47
2022-12-19T05:10:53.186Z,100299.19
2022-12-19T05:16:03.134Z,100295.84
2022-12-19T05:21:05.714Z,100272.31
2022-12-19T05:26:07.763Z,100296.94
2022-12-19T05:31:11.852Z,100295.97
2022-12-19T05:36:14.134Z,100296.59
2022-12-19T05:41:17.377Z,100304.47
2022-12-19T05:46:19.531Z,100287.06
2022-12-19T05:51:21.547Z,100292.78
2022-12-19T05:56:23.439Z,100283.53
2022-12-19T06:01:26.993Z,100279.13
2022-12-19T06:06:28.928Z,100278.47
2022-12-19T06:11:30.806Z,100286.25
2022-12-19T06:16:32.778Z,100301.19
2022-12-19T06:21:34.762Z,100303.41
2022-12-19T06:26:36.609Z,100302.28
2022-12-19T06:31:38.457Z,100298.34
2022-12-19T06:36:41.838Z,100307.94
2022-12-19T06:41:43.679Z,100297.28
2022-12-19T06:46:45.535Z,100298.00
2022-12-19T06:51:47.397Z,100289.34
2022-12-19T06:56:49.231Z,100287.38
2022-12-19T07:02:09.857Z,100263.28
2022-12-19T07:07:11.712Z,100272.13
2022-12-19T07:12:13.505Z,100276.88
2022-12-19T07:17:15.354Z,100281.66
2022-12-19T07:22:17.144Z,100288.78
2022-12-19T07:27:19.050Z,100285.00
2022-12-19T07:32:21.597Z,100292.81
2022-12-19T07:37:23.335Z,100292.44
2022-12-19T07:42:28.177Z,100291.97
2022-12-19T07:47:34.024Z,100277.63
2022-12-19T07:52:35.819Z,100291.84
2022-12-19T07:57:37.628Z,100280.44
2022-12-19T08:02:39.584Z,100282.47
2022-12-19T08:07:41.633Z,100296.25
2022-12-19T08:12:43.939Z,100292.47
2022-12-19T08:17:45.882Z,100273.94
2022-12-19T08:22:47.869Z,100285.28
2022-12-19T08:27:49.806Z,100275.09
2022-12-19T08:32:51.717Z,100277.41
2022-12-19T08:37:53.672Z,100269.00
2022-12-19T08:42:55.610Z,100264.88
2022-12-19T08:47:57.480Z,100264.25
2022-12-19T08:52:59.341Z,100279.22
2022-12-19T08:58:01.466Z,100272.75
2022-12-19T09:03:03.776Z,100267.78
2022-12-19T09:08:07.353Z,100265.44
2022-12-19T09:13:09.230Z,100266.63
2022-12-19T09:18:11.057Z,100262.28
2022-12-19T09:23:12.866Z,100265.13
2022-12-19T09:28:29.964Z,100261.28
2022-12-19T09:33:36.615Z,100273.13
2022-12-19T09:38:41.732Z,100261.72
2022-12-19T09:43:49.491Z,100269.81
2022-12-19T09:48:55.301Z,100269.31
2022-12-19T09:54:07.738Z,100269.38
2022-12-19T09:59:41.191Z,100259.69
2022-12-19T10:04:48.341Z,100270.16
2022-12-19T10:11:58.934Z,100273.38
2022-12-19T10:15:59.015Z,100263.25
2022-12-19T10:22:07.646Z,100268.00
2022-12-19T10:27:01.371Z,100257.88
2022-12-19T10:32:12.614Z,100257.00
2022-12-19T10:37:35.090Z,100258.66
2022-12-19T10:43:07.491Z,100257.56
2022-12-19T10:48:17.191Z,100263.88
2022-12-19T10:53:27.996Z,100268.38
2022-12-19T10:58:37.355Z,100265.88
2022-12-19T11:03:40.534Z,100264.25
2022-12-19T11:08:42.473Z,100267.69
2022-12-19T11:19:27.504Z,100279.78
2022-12-19T11:27:12.796Z,100273.13
2022-12-19T11:30:43.940Z,100278.06
2022-12-19T11:35:24.868Z,100295.25
2022-12-19T11:40:48.687Z,100297.66
2022-12-19T11:46:09.801Z,100292.84
2022-12-19T11:51:25.414Z,100299.44
2022-12-19T11:56:28.073Z,100286.41
2022-12-19T12:01:52.933Z,100297.50
2022-12-19T12:06:55.979Z,100295.63
2022-12-19T12:23:35.275Z,100299.19
2022-12-19T12:30:02.883Z,100308.31
2022-12-19T12:31:50.449Z,100304.56
2022-12-19T12:32:06.047Z,100315.25
2022-12-19T12:35:46.562Z,100328.22
2022-12-19T12:40:38.616Z,100337.53
2022-12-19T12:45:41.759Z,100337.75
2022-12-19T12:50:43.758Z,100349.19
2022-12-19T12:55:45.560Z,100345.25
2022-12-19T13:01:08.386Z,100345.44
2022-12-19T13:06:33.931Z,100342.03
2022-12-19T13:11:40.349Z,100357.50
2022-12-19T13:16:45.157Z,100354.97
2022-12-19T13:22:05.370Z,100358.38
2022-12-19T13:27:19.432Z,100362.94
2022-12-19T13:32:21.880Z,100371.09
2022-12-19T13:39:54.620Z,100362.66
2022-12-19T13:43:10.680Z,100376.25
2022-12-19T13:48:16.000Z,100381.53
2022-12-19T13:53:18.980Z,100382.44
2022-12-19T13:58:31.209Z,100383.59
2022-12-19T14:03:34.973Z,100382.16
2022-12-19T14:08:37.192Z,100378.22
2022-12-19T14:14:00.337Z,100375.47
2022-12-19T14:19:22.592Z,100390.34
2022-12-19T14:24:24.527Z,100380.69
2022-12-19T14:30:29.952Z,100387.63
2022-12-19T14:36:06.441Z,100381.75
2022-12-19T14:41:00.258Z,100371.09
2022-12-19T14:52:25.644Z,100390.84
2022-12-19T14:54:38.007Z,100404.19
2022-12-19T14:57:03.636Z,100405.75
2022-12-19T15:02:08.736Z,100401.53
2022-12-19T15:07:25.247Z,100406.00
2022-12-19T15:14:46.547Z,100403.50
2022-12-19T15:17:54.591Z,100396.53
2022-12-19T15:22:56.429Z,100394.88
2022-12-19T15:27:58.290Z,100403.66
2022-12-19T15:33:00.119Z,100400.75
2022-12-19T15:38:02.050Z,100410.41
2022-12-19T15:43:03.846Z,100405.31
2022-12-19T15:48:05.890Z,100406.00
2022-12-19T15:53:32.776Z,100407.19
2022-12-19T15:58:40.268Z,100411.09
2022-12-19T16:03:42.303Z,100410.25
2022-12-19T16:08:44.316Z,100410.31
2022-12-19T16:13:49.715Z,100416.56
2022-12-19T16:18:51.602Z,100424.56
2022-12-19T16:23:53.434Z,100424.97
2022-12-19T16:28:55.232Z,100428.78
2022-12-19T16:33:57.105Z,100420.19
2022-12-19T16:38:58.971Z,100420.47
2022-12-19T16:44:00.861Z,100426.09
2022-12-19T16:49:02.827Z,100427.03
2022-12-19T16:54:04.777Z,100427.22
2022-12-19T16:59:15.368Z,100426.75
2022-12-19T17:04:24.293Z,100433.63
2022-12-19T17:09:26.252Z,100431.97
2022-12-19T17:14:31.164Z,100436.94
2022-12-19T17:19:36.273Z,100444.75
2022-12-19T17:24:38.149Z,100454.25
2022-12-19T17:29:40.033Z,100442.78
2022-12-19T17:34:44.266Z,100451.88
2022-12-19T17:39:46.086Z,100446.09
2022-12-19T17:44:47.964Z,100439.41
2022-12-19T17:49:49.801Z,100443.19
2022-12-19T17:54:51.816Z,100456.41
2022-12-19T17:59:53.763Z,100452.09
2022-12-19T18:04:55.654Z,100458.22
2022-12-19T18:09:57.757Z,100457.41
2022-12-19T18:14:59.718Z,100463.66
2022-12-19T18:20:01.550Z,100470.22
2022-12-19T18:25:17.754Z,100477.63
2022-12-19T18:30:20.874Z,100471.56
2022-12-19T18:35:24.967Z,100467.28
2022-12-19T18:40:31.303Z,100468.25
2022-12-19T18:45:37.772Z,100474.19
2022-12-19T18:50:39.780Z,100476.84
2022-12-19T18:55:41.655Z,100472.59
2022-12-19T19:00:43.568Z,100470.00
2022-12-19T19:05:46.564Z,100475.84
2022-12-19T19:10:49.684Z,100467.06
2022-12-19T19:15:53.682Z,100478.25
2022-12-19T19:21:00.708Z,100470.78
2022-12-19T19:26:03.265Z,100487.81
2022-12-19T19:31:06.335Z,100477.13
2022-12-19T19:36:12.311Z,100474.59
2022-12-19T19:41:14.541Z,100476.16
2022-12-19T19:46:16.590Z,100469.31
2022-12-19T19:51:18.580Z,100469.19
2022-12-19T19:56:20.378Z,100474.31
2022-12-19T20:01:22.805Z,100477.91
2022-12-19T20:06:24.614Z,100481.00
2022-12-19T20:11:26.444Z,100486.28
2022-12-19T20:16:28.450Z,100504.69
2022-12-19T20:21:30.512Z,100501.25
2022-12-19T20:26:32.453Z,100503.22
2022-12-19T20:31:34.490Z,100515.34
2022-12-19T20:36:36.544Z,100504.88
2022-12-19T20:41:38.523Z,100502.50
2022-12-19T20:46:40.510Z,100501.00
2022-12-19T20:51:42.479Z,100497.59
2022-12-19T20:56:44.349Z,100502.81
2022-12-19T21:01:46.303Z,100487.00
2022-12-19T21:06:48.285Z,100487.00
2022-12-19T21:11:50.112Z,100490.28
2022-12-19T21:16:52.129Z,100489.53
2022-12-19T21:21:54.211Z,100506.47
2022-12-19T21:26:58.263Z,100493.56
2022-12-19T21:32:00.566Z,100501.75
2022-12-19T21:37:02.517Z,100495.56
2022-12-19T21:42:04.463Z,100498.22
2022-12-19T21:47:06.466Z,100503.38
2022-12-19T21:52:08.355Z,100494.72
2022-12-19T21:57:10.228Z,100479.53
2022-12-19T22:02:12.181Z,100484.47
2022-12-19T22:07:14.285Z,100494.06
2022-12-19T22:12:16.205Z,100499.50
2022-12-19T22:17:18.116Z,100484.19
2022-12-19T22:22:19.938Z,100494.50
2022-12-19T22:27:21.779Z,100485.34
2022-12-19T22:32:23.681Z,100502.63
2022-12-19T22:37:25.732Z,100513.75
2022-12-19T22:42:27.951Z,100499.66
2022-12-19T22:47:29.944Z,100491.69
2022-12-19T22:52:31.763Z,100495.25
2022-12-19T22:57:33.708Z,100480.19
2022-12-19T23:02:35.784Z,100471.16
2022-12-19T23:07:37.758Z,100489.53
2022-12-19T23:12:39.657Z,100496.50
2022-12-19T23:17:41.612Z,100492.56
2022-12-19T23:22:43.547Z,100488.97
2022-12-19T23:27:45.467Z,100487.75
2022-12-19T23:32:51.001Z,100493.13
2022-12-19T23:37:53.096Z,100481.66
2022-12-19T23:42:54.939Z,100482.03
2022-12-19T23:47:56.844Z,100486.00
2022-12-19T23:52:58.815Z,100497.59
2022-12-19T23:58:00.696Z,100471.81
